Hlavní strana
METAR-TAF:

METAR-TAF

Letiště :

Zonguldak, Turecko

zeměpisná šířka: 41-27N, zeměpisná délka: 031-48E, výška: 136 m

METAR: chybějící

Čas: 17:11 (14:11 UTC)

Předpověď počasí

Zpráva byla vytvořena před 3 hodinami a 31 minutami, v 10:40 UTC
Předpověď platná od 25 v 12 UTC do 25 v 21 UTC
vítr z různých směrů 2 kt
Viditelnost: 8000 m
Polojasno ve výšce 3000 ft
Oblačno až skoro zataženo ve výšce 10000 ft
Dočasný
od 25 v 12 UTC do 25 v 15 UTC
Viditelnost: 4000 m
Polojasno ve výšce 1000 ft
Oblačno až skoro zataženo ve výšce 2500 ft
Oblačno až skoro zataženo ve výšce 8000 ft
slabý déšť, kouřmo

TAF: LTAS 251040Z 2512/2521 VRB02KT 8000 SCT030 BKN100 TEMPO 2512/2515 4000 -RA BR SCT010 BKN025 BKN080

Stav a předpovědi počasí z více než 4 000 letišť (zprávy METAR a TAF).

Červené a žluté tečky na mapě představují dostupné meteorologické stanice.

Když kurzor umístíte na tečku, zobrazí se název stanice.

Pak kliknutím zobrazíte stav a předpověď počasí.

Chcete-li změnit mapu, kliknutím na zelené tlačítko se znaménkem +mapu přiblížíte, kliknutím na zelené tlačítko se znaménkem – mapu oddálíte a kliknutím na zelené šipky přejdete na sousední mapy.


METAR-TAF: